Time;durP1;ratioP1;P1;durP2;ratioP2;P2;SDS_P1;SDS_P2;PMS_P1;PMS_P2;Temp;Humidity;BMP_temperature;BMP_pressure;BME280_temperature;BME280_humidity;BME280_pressure;Samples;Min_cycle;Max_cycle;Signal;HPM_P1;HPM_P2
2023/09/17 00:00:18;;;;;;;13.88;9.88;;;;;;;13.49;100.00;98422.41;6112430;19;20011;-73
2023/09/17 00:02:20;;;;;;;11.90;9.20;;;;;;;13.54;100.00;98429.53;6112078;19;19999;-73
2023/09/17 00:04:20;;;;;;;12.95;9.52;;;;;;;13.55;100.00;98431.13;6111849;19;20369;-73
2023/09/17 00:06:21;;;;;;;15.00;10.02;;;;;;;13.54;100.00;98423.97;6111079;19;20045;-73
2023/09/17 00:08:21;;;;;;;13.77;10.43;;;;;;;13.55;100.00;98426.34;6110816;19;20042;-73
2023/09/17 00:10:22;;;;;;;15.15;11.35;;;;;;;13.58;100.00;98427.56;6111161;19;20007;-73
2023/09/17 00:12:22;;;;;;;15.18;12.00;;;;;;;13.59;100.00;98427.16;6112461;19;20460;-73
2023/09/17 00:14:23;;;;;;;14.98;12.27;;;;;;;13.62;100.00;98426.34;6111096;19;20500;-73
2023/09/17 00:16:30;;;;;;;17.15;13.35;;;;;;;13.67;100.00;98430.72;6111184;19;20026;-73
2023/09/17 00:18:31;;;;;;;16.95;13.23;;;;;;;13.67;100.00;98433.50;6109769;19;20030;-73
2023/09/17 00:20:31;;;;;;;16.65;12.80;;;;;;;13.68;100.00;98438.66;6111654;19;20310;-73
2023/09/17 00:22:32;;;;;;;16.98;13.10;;;;;;;13.71;100.00;98439.84;6111020;19;20003;-73
2023/09/17 00:24:33;;;;;;;17.13;12.52;;;;;;;13.72;100.00;98435.84;6110884;19;20001;-73
2023/09/17 00:26:33;;;;;;;16.65;12.57;;;;;;;13.74;100.00;98439.06;6109078;19;20011;-73
2023/09/17 00:28:33;;;;;;;15.95;12.73;;;;;;;13.72;100.00;98430.28;6108856;19;20006;-73
2023/09/17 00:30:34;;;;;;;17.75;12.65;;;;;;;13.76;100.00;98436.66;6108723;19;20014;-73
2023/09/17 00:32:34;;;;;;;16.42;12.65;;;;;;;13.74;100.00;98427.94;6108412;19;20011;-73
2023/09/17 00:34:34;;;;;;;17.33;11.57;;;;;;;13.74;100.00;98437.06;6111273;19;20018;-73
2023/09/17 00:36:35;;;;;;;18.92;12.45;;;;;;;13.73;100.00;98431.88;6109325;19;20015;-73
2023/09/17 00:38:35;;;;;;;20.50;11.98;;;;;;;13.72;100.00;98430.28;6109049;19;20007;-73
2023/09/17 00:40:37;;;;;;;16.20;11.98;;;;;;;13.74;100.00;98427.94;6108453;19;20399;-73
2023/09/17 00:42:39;;;;;;;15.95;11.93;;;;;;;13.74;100.00;98434.28;6111822;19;20331;-73
2023/09/17 00:44:39;;;;;;;15.65;13.02;;;;;;;13.73;100.00;98432.66;6111071;19;20006;-73
2023/09/17 00:46:39;;;;;;;13.98;11.23;;;;;;;13.71;100.00;98429.50;6111017;19;20400;-73
2023/09/17 00:48:41;;;;;;;17.52;12.88;;;;;;;13.71;100.00;98426.72;6109932;19;20389;-73
2023/09/17 00:50:42;;;;;;;19.42;12.65;;;;;;;13.70;100.00;98435.47;6097828;19;20463;-73
2023/09/17 00:52:43;;;;;;;16.83;12.23;;;;;;;13.70;100.00;98425.16;6109911;19;20062;-73
2023/09/17 00:54:45;;;;;;;19.55;12.73;;;;;;;13.71;100.00;98423.16;6111883;19;20027;-73
2023/09/17 00:56:46;;;;;;;15.45;12.20;;;;;;;13.73;100.00;98427.13;6110782;19;20002;-73
2023/09/17 00:58:46;;;;;;;17.92;12.77;;;;;;;13.73;100.00;98415.19;6107074;19;20021;-73
2023/09/17 01:00:47;;;;;;;14.85;11.85;;;;;;;13.74;100.00;98411.25;6108143;19;20026;-73
2023/09/17 01:02:47;;;;;;;17.38;13.05;;;;;;;13.76;100.00;98411.63;6110717;19;20084;-73
2023/09/17 01:04:52;;;;;;;14.35;11.93;;;;;;;13.74;100.00;98402.91;6108857;19;20336;-73
2023/09/17 01:06:55;;;;;;;15.07;11.10;;;;;;;13.77;100.00;98410.44;6108082;19;21387;-73
2023/09/17 01:08:56;;;;;;;19.23;13.18;;;;;;;13.79;100.00;98408.03;6106228;19;20006;-73
2023/09/17 01:10:57;;;;;;;14.20;11.07;;;;;;;13.79;100.00;98399.69;6111147;19;20082;-73
2023/09/17 01:12:59;;;;;;;13.95;11.30;;;;;;;13.79;100.00;98402.47;6109033;19;20006;-73
2023/09/17 01:14:59;;;;;;;15.80;11.30;;;;;;;13.83;100.00;98408.84;6109358;19;20347;-73
2023/09/17 01:17:01;;;;;;;21.13;11.20;;;;;;;13.83;100.00;98408.06;6108170;19;20007;-73
2023/09/17 01:19:03;;;;;;;14.35;10.35;;;;;;;13.88;100.00;98411.19;6105709;19;20006;-73
2023/09/17 01:21:15;;;;;;;15.50;10.65;;;;;;;13.88;100.00;98411.19;6110704;19;20443;-73
2023/09/17 01:23:26;;;;;;;16.00;11.43;;;;;;;13.90;100.00;98411.59;6110937;19;20015;-73
2023/09/17 01:25:35;;;;;;;15.63;11.38;;;;;;;13.93;100.00;98413.56;6109442;19;20293;-73
2023/09/17 01:27:40;;;;;;;15.52;12.02;;;;;;;13.95;100.00;98410.38;6107046;19;20340;-73
2023/09/17 01:29:42;;;;;;;18.63;12.60;;;;;;;13.91;100.00;98399.28;6108630;19;20002;-73
2023/09/17 01:31:43;;;;;;;14.32;11.70;;;;;;;13.91;100.00;98399.28;6110382;19;20011;-73
2023/09/17 01:33:43;;;;;;;18.42;12.05;;;;;;;13.87;100.00;98398.50;6108360;19;20475;-73
2023/09/17 01:35:49;;;;;;;15.32;12.55;;;;;;;13.83;100.00;98406.06;6108931;19;20034;-73
2023/09/17 01:37:54;;;;;;;16.25;12.20;;;;;;;13.79;100.00;98402.47;6107330;19;20006;-73
2023/09/17 01:39:58;;;;;;;16.25;11.65;;;;;;;13.76;100.00;98403.28;6108221;19;20010;-73
2023/09/17 01:42:03;;;;;;;17.42;12.13;;;;;;;13.73;100.00;98404.06;6108144;19;20011;-73
2023/09/17 01:44:07;;;;;;;14.65;11.90;;;;;;;13.69;100.00;98406.88;6109095;19;20003;-73
2023/09/17 01:46:08;;;;;;;14.38;12.05;;;;;;;13.68;100.00;98413.63;6106017;19;20006;-73
2023/09/17 01:48:10;;;;;;;12.60;10.52;;;;;;;13.67;100.00;98416.81;6103252;19;20487;-74
2023/09/17 01:50:11;;;;;;;12.73;11.32;;;;;;;13.65;100.00;98410.84;6108055;19;20010;-73
2023/09/17 01:52:12;;;;;;;16.55;11.55;;;;;;;13.64;100.00;98409.25;6106072;19;20407;-73
2023/09/17 01:54:14;;;;;;;13.00;10.88;;;;;;;13.64;100.00;98414.81;6106667;19;20006;-73
2023/09/17 01:56:14;;;;;;;14.30;11.57;;;;;;;13.61;100.00;98405.31;6105336;19;20073;-73
2023/09/17 01:58:16;;;;;;;15.00;10.50;;;;;;;13.61;100.00;98412.84;6102527;19;20423;-73
2023/09/17 02:00:18;;;;;;;15.48;11.45;;;;;;;13.59;100.00;98406.91;6105089;19;20354;-73
2023/09/17 02:02:19;;;;;;;17.57;12.30;;;;;;;13.61;100.00;98408.09;6106074;19;20466;-73
2023/09/17 02:04:19;;;;;;;14.05;11.15;;;;;;;13.61;100.00;98401.72;6104819;19;20010;-73
2023/09/17 02:06:20;;;;;;;14.68;11.15;;;;;;;13.60;100.00;98400.16;6105209;19;20007;-73
2023/09/17 02:08:20;;;;;;;13.75;11.35;;;;;;;13.61;100.00;98396.16;6104362;19;20527;-73
2023/09/17 02:10:20;;;;;;;13.82;10.27;;;;;;;13.61;100.00;98396.97;6104757;19;20343;-73
2023/09/17 02:12:21;;;;;;;17.15;10.85;;;;;;;13.61;100.00;98396.97;6104800;19;20799;-73
2023/09/17 02:14:21;;;;;;;15.85;10.65;;;;;;;13.65;100.00;98395.00;6105160;19;20525;-73
2023/09/17 02:16:21;;;;;;;19.23;10.60;;;;;;;13.65;100.00;98395.00;6105364;19;20018;-73
2023/09/17 02:18:22;;;;;;;15.95;10.48;;;;;;;13.66;100.00;98387.44;6102582;19;20042;-73
2023/09/17 02:20:22;;;;;;;13.20;10.10;;;;;;;13.68;100.00;98405.28;6104816;19;20020;-73
2023/09/17 02:22:23;;;;;;;14.23;10.60;;;;;;;13.69;100.00;98397.75;6104358;19;20006;-73
2023/09/17 02:24:23;;;;;;;15.20;10.57;;;;;;;13.71;100.00;98392.56;6105207;19;20014;-73
2023/09/17 02:26:23;;;;;;;13.30;10.30;;;;;;;13.73;100.00;98395.75;6104950;19;20065;-73
2023/09/17 02:28:24;;;;;;;12.10;9.20;;;;;;;13.72;100.00;98394.94;6104270;19;20007;-73
2023/09/17 02:30:24;;;;;;;12.98;9.40;;;;;;;13.73;100.00;98401.28;6104887;19;20010;-73
2023/09/17 02:32:25;;;;;;;13.75;10.18;;;;;;;13.74;100.00;98397.34;6104255;19;20007;-73
2023/09/17 02:34:25;;;;;;;12.73;9.95;;;;;;;13.74;100.00;98397.34;6104320;19;20315;-73
2023/09/17 02:36:25;;;;;;;14.63;10.07;;;;;;;13.75;100.00;98396.94;6104437;19;20018;-73
2023/09/17 02:38:26;;;;;;;14.70;10.57;;;;;;;13.74;100.00;98389.81;6103114;19;20010;-73
2023/09/17 02:40:26;;;;;;;14.60;10.50;;;;;;;13.78;100.00;98390.56;6104880;19;20015;-73
2023/09/17 02:42:27;;;;;;;13.52;9.48;;;;;;;13.79;100.00;98391.34;6103836;19;20462;-73
2023/09/17 02:44:27;;;;;;;12.70;10.10;;;;;;;13.81;100.00;98388.97;6104219;19;20489;-73
2023/09/17 02:46:27;;;;;;;12.93;10.10;;;;;;;13.82;100.00;98395.31;6101165;19;20007;-73
2023/09/17 02:48:28;;;;;;;14.43;10.35;;;;;;;13.83;100.00;98396.94;6102902;19;20074;-73
2023/09/17 02:50:28;;;;;;;13.10;10.55;;;;;;;13.82;100.00;98396.13;6104150;19;20427;-73
2023/09/17 02:52:29;;;;;;;12.13;9.90;;;;;;;13.80;100.00;98392.16;6108404;19;20015;-73
2023/09/17 02:54:29;;;;;;;16.35;10.90;;;;;;;13.80;100.00;98383.81;6108713;19;20021;-73
2023/09/17 02:56:29;;;;;;;13.25;10.38;;;;;;;13.80;100.00;98383.81;6107556;19;20331;-73
2023/09/17 02:58:30;;;;;;;13.52;9.95;;;;;;;13.80;100.00;98386.59;6105305;19;20396;-73
2023/09/17 03:00:33;;;;;;;13.75;10.20;;;;;;;13.76;100.00;98381.84;6114335;19;20122;-73
2023/09/17 03:02:34;;;;;;;13.57;10.77;;;;;;;13.75;100.00;98383.03;6113581;19;20505;-73
2023/09/17 03:04:36;;;;;;;14.00;10.63;;;;;;;13.74;100.00;98380.66;6111595;19;20022;-73
2023/09/17 03:06:37;;;;;;;11.33;9.90;;;;;;;13.73;100.00;98381.84;6113692;19;20019;-73
2023/09/17 03:08:43;;;;;;;14.18;10.68;;;;;;;13.77;100.00;98388.97;6112523;19;20423;-73
2023/09/17 03:10:44;;;;;;;13.80;10.32;;;;;;;13.75;100.00;98387.81;6113372;19;20246;-73
2023/09/17 03:12:49;;;;;;;14.57;11.18;;;;;;;13.76;100.00;98394.94;6112474;19;20481;-73
2023/09/17 03:14:52;;;;;;;12.65;10.45;;;;;;;13.78;100.00;98392.56;6113111;19;20012;-73
2023/09/17 03:16:52;;;;;;;15.07;10.85;;;;;;;13.82;100.00;98392.53;6112863;19;20015;-73
2023/09/17 03:18:53;;;;;;;17.00;11.00;;;;;;;13.81;100.00;98386.19;6111836;19;20009;-73
2023/09/17 03:20:53;;;;;;;12.23;10.18;;;;;;;13.83;100.00;98386.59;6113269;19;20356;-73
2023/09/17 03:22:54;;;;;;;15.18;10.48;;;;;;;13.84;100.00;98395.72;6112253;19;20462;-73
2023/09/17 03:24:56;;;;;;;13.88;10.05;;;;;;;13.82;100.00;98398.91;6113225;19;20006;-73
2023/09/17 03:26:56;;;;;;;14.88;10.90;;;;;;;13.83;100.00;98396.94;6112986;19;20323;-73
2023/09/17 03:28:56;;;;;;;17.02;12.38;;;;;;;13.83;100.00;98394.16;6111614;19;20339;-73
2023/09/17 03:30:58;;;;;;;14.13;11.07;;;;;;;13.83;100.00;98397.72;6111971;19;20013;-74
2023/09/17 03:32:58;;;;;;;14.10;10.65;;;;;;;13.82;100.00;98393.34;6113105;19;20467;-73
2023/09/17 03:34:58;;;;;;;12.98;10.38;;;;;;;13.82;100.00;98396.13;6111505;19;20014;-73
2023/09/17 03:36:59;;;;;;;12.85;11.15;;;;;;;13.83;100.00;98391.38;6112436;19;20007;-73
2023/09/17 03:38:59;;;;;;;13.18;10.43;;;;;;;13.85;100.00;98408.44;6111480;19;20006;-73
2023/09/17 03:41:00;;;;;;;13.75;10.70;;;;;;;13.82;100.00;98398.09;6112800;19;20046;-73
2023/09/17 03:43:00;;;;;;;13.30;10.70;;;;;;;13.87;100.00;98398.50;6112542;19;20642;-73
2023/09/17 03:45:05;;;;;;;15.57;11.15;;;;;;;13.87;100.00;98403.25;6111481;19;20385;-73
2023/09/17 03:47:06;;;;;;;13.73;10.90;;;;;;;13.89;100.00;98404.44;6111400;19;20038;-73
2023/09/17 03:49:06;;;;;;;13.20;10.98;;;;;;;13.88;100.00;98402.06;6111448;19;20006;-73
2023/09/17 03:51:06;;;;;;;11.90;9.65;;;;;;;13.87;100.00;98404.03;6111803;19;20006;-73
2023/09/17 03:53:07;;;;;;;12.82;9.75;;;;;;;13.85;100.00;98403.66;6112629;19;20002;-73
2023/09/17 03:55:08;;;;;;;12.75;9.85;;;;;;;13.85;100.00;98403.66;6112161;19;20010;-73
2023/09/17 03:57:09;;;;;;;16.00;11.23;;;;;;;13.88;100.00;98407.63;6112931;19;20002;-73
2023/09/17 03:59:09;;;;;;;13.98;10.68;;;;;;;13.85;100.00;98400.88;6109322;19;20351;-73
2023/09/17 04:01:09;;;;;;;15.85;12.15;;;;;;;13.86;100.00;98398.91;6112497;19;20523;-73
2023/09/17 04:03:12;;;;;;;15.00;10.88;;;;;;;13.86;100.00;98413.59;6112486;19;20006;-73
2023/09/17 04:05:14;;;;;;;14.25;10.55;;;;;;;13.87;100.00;98406.81;6110482;19;20013;-73
2023/09/17 04:07:14;;;;;;;15.23;11.20;;;;;;;13.90;100.00;98396.88;6112335;19;20234;-73
2023/09/17 04:09:14;;;;;;;12.70;10.10;;;;;;;13.89;100.00;98404.44;6109486;19;20002;-73
2023/09/17 04:11:17;;;;;;;13.57;10.10;;;;;;;13.92;100.00;98412.00;6111048;19;20007;-73
2023/09/17 04:13:17;;;;;;;13.18;10.55;;;;;;;13.92;100.00;98405.63;6111554;19;20014;-73
2023/09/17 04:15:20;;;;;;;17.33;11.50;;;;;;;13.91;100.00;98399.28;6110239;19;20010;-73
2023/09/17 04:17:20;;;;;;;14.90;10.65;;;;;;;13.91;100.00;98404.84;6112392;19;20018;-73
2023/09/17 04:19:20;;;;;;;13.85;10.90;;;;;;;13.92;100.00;98405.63;6111397;19;20074;-73
2023/09/17 04:21:21;;;;;;;21.23;10.82;;;;;;;13.91;100.00;98407.63;6111442;19;20003;-73
2023/09/17 04:23:24;;;;;;;19.17;10.63;;;;;;;13.92;100.00;98406.44;6108155;19;20538;-73
2023/09/17 04:25:25;;;;;;;15.10;10.10;;;;;;;13.94;100.00;98406.03;6112810;19;20029;-73
2023/09/17 04:27:26;;;;;;;15.52;9.85;;;;;;;13.95;100.00;98405.63;6112387;19;20027;-73
2023/09/17 04:29:27;;;;;;;11.55;9.27;;;;;;;13.96;100.00;98411.97;6109983;19;20006;-73
2023/09/17 04:31:27;;;;;;;14.00;9.95;;;;;;;13.97;100.00;98410.75;6112097;19;20007;-73
2023/09/17 04:33:28;;;;;;;11.60;9.30;;;;;;;13.97;100.00;98408.78;6112059;19;20021;-73
2023/09/17 04:35:28;;;;;;;13.55;9.90;;;;;;;13.97;100.00;98400.44;6111158;19;20006;-73
2023/09/17 04:37:28;;;;;;;13.65;9.73;;;;;;;13.97;100.00;98419.91;6112214;19;20350;-73
2023/09/17 04:39:29;;;;;;;13.43;9.07;;;;;;;13.98;100.00;98417.91;6110016;19;20753;-73
2023/09/17 04:41:29;;;;;;;14.55;9.68;;;;;;;13.97;100.00;98417.13;6111250;19;20435;-73
2023/09/17 04:43:29;;;;;;;10.07;8.35;;;;;;;13.98;100.00;98424.28;6109828;19;20032;-73
2023/09/17 04:45:37;;;;;;;11.50;8.60;;;;;;;13.97;100.00;98419.13;6110755;19;20609;-73
2023/09/17 04:47:39;;;;;;;9.95;8.60;;;;;;;13.97;100.00;98421.91;6108900;19;20011;-73
2023/09/17 04:49:39;;;;;;;11.52;8.57;;;;;;;13.99;100.00;98427.88;6110193;19;20367;-73
2023/09/17 04:51:40;;;;;;;9.73;8.10;;;;;;;13.97;100.00;98424.69;6109604;19;20360;-73
2023/09/17 04:53:40;;;;;;;13.50;9.35;;;;;;;13.99;100.00;98430.66;6108636;19;20011;-73
2023/09/17 04:55:40;;;;;;;12.00;9.07;;;;;;;13.97;100.00;98422.69;6111371;19;20128;-73
2023/09/17 04:57:41;;;;;;;10.70;8.90;;;;;;;13.96;100.00;98429.44;6109235;19;20007;-73
2023/09/17 04:59:41;;;;;;;9.45;8.00;;;;;;;13.96;100.00;98434.22;6108022;19;20072;-73
2023/09/17 05:01:42;;;;;;;11.77;8.25;;;;;;;13.98;100.00;98429.84;6109209;19;20014;-73
2023/09/17 05:03:42;;;;;;;9.77;8.23;;;;;;;13.97;100.00;98427.47;6110238;19;20010;-73
2023/09/17 05:05:42;;;;;;;15.85;9.60;;;;;;;13.96;100.00;98437.78;6108856;19;20038;-73
2023/09/17 05:07:43;;;;;;;12.15;8.57;;;;;;;13.94;100.00;98434.63;6110196;19;20560;-73
2023/09/17 05:09:43;;;;;;;12.60;9.10;;;;;;;13.92;100.00;98428.69;6108538;19;20003;-73
2023/09/17 05:11:43;;;;;;;12.23;8.75;;;;;;;13.94;100.00;98428.28;6109918;19;21075;-73
2023/09/17 05:13:44;;;;;;;11.50;9.30;;;;;;;13.93;100.00;98435.81;6110094;19;20669;-73
2023/09/17 05:15:44;;;;;;;17.20;9.07;;;;;;;13.91;100.00;98431.88;6110200;19;20007;-73
2023/09/17 05:17:44;;;;;;;20.73;9.93;;;;;;;13.89;100.00;98432.25;6107518;19;20007;-73
2023/09/17 05:19:45;;;;;;;16.05;8.90;;;;;;;13.88;100.00;98425.09;6107682;19;20010;-73
2023/09/17 05:21:45;;;;;;;15.15;9.55;;;;;;;13.83;100.00;98424.75;6108101;19;20296;-73
2023/09/17 05:23:45;;;;;;;13.95;8.82;;;;;;;13.79;100.00;98430.28;6107235;19;20014;-73
2023/09/17 05:25:46;;;;;;;11.15;8.82;;;;;;;13.78;100.00;98428.69;6109791;19;20018;-73
2023/09/17 05:27:46;;;;;;;11.05;8.13;;;;;;;13.77;100.00;98430.69;6109884;19;20580;-73
2023/09/17 05:29:47;;;;;;;17.85;8.68;;;;;;;13.73;100.00;98429.09;6108012;19;20034;-73
2023/09/17 05:31:47;;;;;;;11.30;8.45;;;;;;;13.71;100.00;98431.50;6109642;19;20021;-73
2023/09/17 05:33:47;;;;;;;10.90;7.93;;;;;;;13.70;100.00;98436.25;6109188;19;20458;-73
2023/09/17 05:35:48;;;;;;;12.88;9.35;;;;;;;13.68;100.00;98432.31;6110183;19;20078;-73
2023/09/17 05:37:48;;;;;;;15.05;8.50;;;;;;;13.66;100.00;98434.69;6108955;19;20044;-73
2023/09/17 05:39:48;;;;;;;14.13;8.73;;;;;;;13.62;100.00;98431.13;6108787;19;20006;-73
2023/09/17 05:41:49;;;;;;;13.30;9.38;;;;;;;13.57;100.00;98443.44;6106842;19;20017;-73
2023/09/17 05:43:49;;;;;;;10.55;7.97;;;;;;;13.53;100.00;98445.41;6108699;19;20006;-73
2023/09/17 05:45:56;;;;;;;9.45;8.32;;;;;;;13.51;100.00;98447.81;6108388;19;20009;-73
2023/09/17 05:47:56;;;;;;;14.63;9.55;;;;;;;13.50;100.00;98451.78;6108804;19;20127;-73
2023/09/17 05:49:58;;;;;;;18.55;9.18;;;;;;;13.46;100.00;98439.88;6098927;19;20050;-73
2023/09/17 05:51:59;;;;;;;11.45;8.88;;;;;;;13.42;100.00;98445.44;6105956;19;20017;-73
2023/09/17 05:53:59;;;;;;;10.77;8.68;;;;;;;13.41;100.00;98441.06;6107909;19;20010;-73
2023/09/17 05:56:01;;;;;;;12.32;9.20;;;;;;;13.40;100.00;98450.56;6107410;19;20447;-73
2023/09/17 05:58:01;;;;;;;12.88;8.98;;;;;;;13.38;100.00;98441.06;6107409;19;20034;-73
2023/09/17 06:00:03;;;;;;;13.23;9.13;;;;;;;13.38;100.00;98446.63;6104273;19;20003;-73
2023/09/17 06:02:03;;;;;;;10.32;8.55;;;;;;;13.38;100.00;98457.72;6104102;19;20006;-73
2023/09/17 06:04:04;;;;;;;11.07;8.57;;;;;;;13.37;100.00;98440.25;6107785;19;20351;-72
2023/09/17 06:06:05;;;;;;;10.45;8.70;;;;;;;13.39;100.00;98432.31;6105925;19;20014;-73
2023/09/17 06:08:05;;;;;;;10.95;8.40;;;;;;;13.43;100.00;98441.47;6107682;19;20006;-73
2023/09/17 06:10:06;;;;;;;12.15;9.07;;;;;;;13.43;100.00;98447.03;6104495;19;20011;-73
2023/09/17 06:12:06;;;;;;;10.40;8.40;;;;;;;13.44;100.00;98442.25;6108236;19;20011;-73
2023/09/17 06:14:07;;;;;;;10.63;8.10;;;;;;;13.46;100.00;98448.19;6105144;19;20334;-73
2023/09/17 06:16:07;;;;;;;14.88;9.18;;;;;;;13.47;100.00;98447.00;6107536;19;20079;-73
2023/09/17 06:18:07;;;;;;;12.30;8.38;;;;;;;13.44;100.00;98447.81;6107203;19;20373;-73
2023/09/17 06:20:08;;;;;;;12.43;8.43;;;;;;;13.45;100.00;98450.19;6101272;19;20483;-73
2023/09/17 06:22:11;;;;;;;13.85;9.48;;;;;;;13.44;100.00;98447.81;6107000;19;20359;-73
2023/09/17 06:24:11;;;;;;;;;;;;;;;13.46;100.00;98454.56;6109179;19;20003;-73
2023/09/17 06:26:11;;;;;;;13.32;8.90;;;;;;;13.47;100.00;98447.78;6107393;19;19922;-73
2023/09/17 06:28:12;;;;;;;13.00;10.00;;;;;;;13.53;100.00;98441.84;6104675;19;20026;-73
2023/09/17 06:30:13;;;;;;;13.18;8.50;;;;;;;13.57;100.00;98454.56;6108106;19;20014;-73
2023/09/17 06:32:13;;;;;;;12.90;8.63;;;;;;;13.63;100.00;98450.16;6108064;19;20820;-73
2023/09/17 06:34:14;;;;;;;18.23;11.00;;;;;;;13.71;100.00;98462.88;6113967;19;20005;-73
2023/09/17 06:36:14;;;;;;;24.98;10.20;;;;;;;13.77;100.00;98468.84;6112100;19;20007;-73
2023/09/17 06:38:15;;;;;;;13.90;9.38;;;;;;;13.81;100.00;98458.47;6111076;19;20010;-73
2023/09/17 06:40:17;;;;;;;13.77;10.23;;;;;;;13.86;100.00;98460.88;6113925;19;20016;-73
2023/09/17 06:42:17;;;;;;;13.50;9.15;;;;;;;13.90;100.00;98460.84;6111217;19;20003;-73
2023/09/17 06:44:18;;;;;;;13.50;8.52;;;;;;;13.95;100.00;98466.81;6112625;19;20025;-73
2023/09/17 06:46:19;;;;;;;13.68;9.05;;;;;;;14.02;100.00;98457.66;6112934;19;20014;-73
2023/09/17 06:48:19;;;;;;;9.68;8.50;;;;;;;14.10;100.00;98461.22;6111736;19;20003;-73
2023/09/17 06:50:19;;;;;;;9.45;8.32;;;;;;;14.17;100.00;98462.00;6107513;19;20010;-73
2023/09/17 06:52:23;;;;;;;12.07;8.93;;;;;;;14.25;100.00;98459.97;6109968;19;20006;-73
2023/09/17 06:54:23;;;;;;;12.27;8.27;;;;;;;14.32;100.00;98463.53;6109812;19;19994;-73
2023/09/17 06:56:24;;;;;;;13.85;8.80;;;;;;;14.43;100.00;98462.69;6110035;19;20116;-73
2023/09/17 06:58:24;;;;;;;14.80;9.35;;;;;;;14.50;100.00;98462.69;6108324;19;20018;-73
2023/09/17 07:00:24;;;;;;;10.70;8.45;;;;;;;14.54;100.00;98458.69;6109019;19;20013;-73
2023/09/17 07:02:25;;;;;;;11.65;9.45;;;;;;;14.57;100.00;98457.09;6108932;19;20480;-73
2023/09/17 07:04:25;;;;;;;12.18;8.73;;;;;;;14.64;100.00;98459.03;6107796;19;20006;-73
2023/09/17 07:06:26;;;;;;;8.88;7.75;;;;;;;14.70;100.00;98458.19;6108959;19;20355;-73
2023/09/17 07:08:27;;;;;;;12.23;8.77;;;;;;;14.86;100.00;98460.50;6106954;19;20042;-73
2023/09/17 07:10:27;;;;;;;11.45;8.13;;;;;;;14.94;100.00;98462.03;6108464;19;20010;-73
2023/09/17 07:12:28;;;;;;;15.93;9.68;;;;;;;15.04;100.00;98463.19;6107150;19;20340;-73
2023/09/17 07:14:28;;;;;;;11.73;8.45;;;;;;;15.14;100.00;98456.72;6107570;19;20010;-73
2023/09/17 07:16:28;;;;;;;11.32;8.02;;;;;;;15.22;100.00;98465.84;6109161;19;20251;-73
2023/09/17 07:18:31;;;;;;;9.07;7.53;;;;;;;15.29;100.00;98457.41;6107437;19;20381;-73
2023/09/17 07:20:31;;;;;;;10.30;8.25;;;;;;;15.37;100.00;98464.53;6107849;19;20011;-73
2023/09/17 07:22:32;;;;;;;12.82;8.73;;;;;;;15.41;100.00;98463.31;6108474;19;20014;-73
2023/09/17 07:24:32;;;;;;;10.23;8.57;;;;;;;15.39;100.00;98462.13;6109135;19;20006;-73
2023/09/17 07:26:33;;;;;;;11.10;8.02;;;;;;;15.42;100.00;98467.69;6106588;19;20007;-73
2023/09/17 07:28:33;;;;;;;11.30;7.60;;;;;;;15.43;100.00;98466.47;6107790;19;20007;-73
2023/09/17 07:30:37;;;;;;;11.88;7.88;;;;;;;15.43;100.00;98466.47;6108672;19;20484;-73
2023/09/17 07:32:37;;;;;;;10.32;8.25;;;;;;;15.45;100.00;98463.25;6109743;19;20010;-73
2023/09/17 07:34:37;;;;;;;9.70;7.93;;;;;;;15.49;100.00;98474.41;6108108;19;20011;-73
2023/09/17 07:36:38;;;;;;;13.68;8.18;;;;;;;15.53;100.00;98469.56;6109359;19;20094;-73
2023/09/17 07:38:38;;;;;;;10.00;8.05;;;;;;;15.60;100.00;98467.53;6108540;19;20078;-73
2023/09/17 07:40:38;;;;;;;10.70;8.77;;;;;;;15.66;100.00;98459.53;6109119;19;20046;-73
2023/09/17 07:42:39;;;;;;;12.73;8.88;;;;;;;15.72;100.00;98467.06;6108423;19;20186;-73
2023/09/17 07:44:40;;;;;;;9.13;8.15;;;;;;;15.80;100.00;98470.53;6105806;19;20003;-73
2023/09/17 07:46:40;;;;;;;10.25;8.10;;;;;;;15.86;100.00;98463.31;6104192;19;20014;-73
2023/09/17 07:48:41;;;;;;;11.25;8.73;;;;;;;16.00;100.00;98463.19;6103193;19;20406;-73
2023/09/17 07:50:41;;;;;;;8.95;7.80;;;;;;;16.16;100.00;98459.81;6106165;19;20910;-73
2023/09/17 07:52:41;;;;;;;11.70;9.07;;;;;;;16.33;100.00;98454.47;6113593;19;20506;-73
2023/09/17 07:54:43;;;;;;;11.25;9.20;;;;;;;16.43;100.00;98456.31;6113285;19;20138;-73
2023/09/17 07:56:44;;;;;;;12.90;8.57;;;;;;;16.51;100.00;98460.59;6112854;19;20006;-73
2023/09/17 07:58:45;;;;;;;10.18;8.23;;;;;;;16.56;100.00;98455.34;6112347;19;20011;-73
2023/09/17 08:00:45;;;;;;;12.52;9.00;;;;;;;16.66;100.00;98459.22;6111301;19;20237;-73
2023/09/17 08:02:46;;;;;;;10.02;7.50;;;;;;;16.72;100.00;98456.78;6110293;19;20007;-73
2023/09/17 08:04:46;;;;;;;11.82;8.70;;;;;;;16.80;100.00;98464.66;6111810;19;20231;-73
2023/09/17 08:06:48;;;;;;;9.85;7.63;;;;;;;16.88;100.00;98467.31;6111455;19;20007;-73
2023/09/17 08:08:49;;;;;;;10.45;8.40;;;;;;;16.94;100.00;98451.69;6111414;19;20034;-73
2023/09/17 08:10:49;;;;;;;8.68;7.22;;;;;;;17.01;100.00;98459.97;6112131;19;20007;-73
2023/09/17 08:12:50;;;;;;;11.25;7.97;;;;;;;17.08;100.00;98462.66;6113795;19;20014;-73
2023/09/17 08:14:51;;;;;;;10.80;8.18;;;;;;;17.18;100.00;98452.53;6111843;19;20076;-73
2023/09/17 08:16:52;;;;;;;11.73;8.25;;;;;;;17.31;100.00;98456.31;6112685;19;20010;-73
2023/09/17 08:18:52;;;;;;;12.95;8.00;;;;;;;17.44;100.00;98446.09;6110507;19;20011;-73
2023/09/17 08:20:53;;;;;;;10.07;7.10;;;;;;;17.57;100.00;98455.47;6111330;19;20348;-73
2023/09/17 08:22:53;;;;;;;11.82;7.90;;;;;;;17.68;100.00;98458.09;6112991;19;20015;-73
2023/09/17 08:24:53;;;;;;;8.52;6.95;;;;;;;17.76;100.00;98459.56;6112428;19;20014;-73
2023/09/17 08:26:54;;;;;;;9.40;6.60;;;;;;;17.81;100.00;98459.09;6112355;19;20490;-73
2023/09/17 08:28:56;;;;;;;12.48;7.20;;;;;;;17.86;100.00;98449.41;6110751;19;20488;-73
2023/09/17 08:30:57;;;;;;;11.70;6.97;;;;;;;17.90;100.00;98450.16;6110999;19;20011;-73
2023/09/17 08:32:59;;;;;;;8.85;7.45;;;;;;;17.98;100.00;98450.81;6112342;19;20333;-73
2023/09/17 08:35:00;;;;;;;8.90;6.82;;;;;;;17.99;100.00;98441.19;6110627;19;20011;-73
2023/09/17 08:37:00;;;;;;;8.43;6.47;;;;;;;18.01;100.00;98439.53;6112480;19;20010;-73
2023/09/17 08:39:01;;;;;;;8.38;6.88;;;;;;;18.08;100.00;98447.78;6109944;19;20014;-74
2023/09/17 08:41:01;;;;;;;9.70;6.68;;;;;;;18.18;100.00;98446.78;6111749;19;20042;-73
2023/09/17 08:43:04;;;;;;;8.98;7.00;;;;;;;18.28;100.00;98442.19;6110264;19;20690;-73
2023/09/17 08:45:05;;;;;;;7.93;6.10;;;;;;;18.40;100.00;98457.59;6112144;19;20335;-73
2023/09/17 08:47:06;;;;;;;8.77;6.07;;;;;;;18.43;100.00;98437.88;6110692;19;20006;-73
2023/09/17 08:49:06;;;;;;;6.82;5.63;;;;;;;18.53;100.00;98444.50;6109562;19;20019;-73
2023/09/17 08:51:11;;;;;;;8.45;6.15;;;;;;;18.61;100.00;98442.31;6110632;19;20094;-73
2023/09/17 08:53:18;;;;;;;9.00;6.63;;;;;;;18.67;100.00;98440.63;6112083;19;20018;-73
2023/09/17 08:55:19;;;;;;;6.93;5.80;;;;;;;18.74;100.00;98443.28;6112209;19;20426;-73
2023/09/17 08:57:22;;;;;;;7.80;6.32;;;;;;;18.86;100.00;98445.41;6108379;19;20385;-73
2023/09/17 08:59:27;;;;;;;7.55;5.78;;;;;;;18.95;100.00;98440.03;6110051;19;20023;-73
2023/09/17 09:01:28;;;;;;;8.65;5.35;;;;;;;19.02;100.00;98433.44;6110416;19;20034;-73
2023/09/17 09:03:33;;;;;;;7.50;5.65;;;;;;;19.11;100.00;98438.44;6107113;19;20387;-73
2023/09/17 09:05:35;;;;;;;5.85;5.10;;;;;;;19.20;100.00;98441.47;6110888;19;20015;-73
2023/09/17 09:07:35;;;;;;;6.32;5.20;;;;;;;19.31;100.00;98436.38;6111235;19;20458;-73
2023/09/17 09:09:37;;;;;;;7.18;5.95;;;;;;;19.47;100.00;98439.19;6109807;19;20489;-73
2023/09/17 09:11:38;;;;;;;7.50;5.35;;;;;;;19.53;100.00;98440.22;6110515;19;20006;-73
2023/09/17 09:13:40;;;;;;;6.80;5.50;;;;;;;19.61;100.00;98432.44;6110312;19;19999;-73